Terminal Aerodrome Forecast
Issued by NWS

Home | Current Version | Previous Version | Text Only | Print | Product List | Glossary On
Versions: 1 2 3 4 5 6 7 8 9 10 11 12 13 14
000
FTUS45 KABQ 251131
TAFTCC
TAF
KTCC 251131Z 2512/2612 12006KT P6SM OVC015
      TEMPO 2512/2515 OVC007
     FM251600 14007KT P6SM FEW025 SCT035
     FM252000 15008KT P6SM SCT040
     FM252300 16010G18KT P6SM SCT040 BKN120
      TEMPO 2603/2606 VRB20G35KT 4SM -TSRA OVC025CB
     FM260700 13010KT P6SM FEW025 BKN040=

USA.gov is the U.S. government's official web portal to all federal, state and local government web resources and services.